Gaschem Phoenix — ELUO6 — position and weather

sailwx.info

Track history (hours):
 
Tides and Currents Weather Stations Pressure Air Temp Water Temp Dewpoint Dewpoint Depression Visibility Wind Speed Wind Dir Waves Ship Positions

Gaschem Phoenix

Last reported at 2014-Jul-30 00:31 UTC. Time now 2014-Jul-30 21:17 UTC.
Position N 30°58' E 122°42'.

Length 100 m; draft 4.6 m.

Type: Ship. MMSI: 636090235.

Date/timePositionNaut miles runAvg speedWind from/ knotsBaromVisibWave heightAir tempDewpointWater temp
2014-Jul-30 00:31N 30°58' E 122°42'1414.3
2014-Jul-29 23:33N 31°00' E 122°26'1413.3
2014-Jul-29 22:29N 31°03' E 122°09'2015.4
2014-Jul-29 21:12N 31°12' E 121°49'1014.8
2014-Jul-29 20:32N 31°20' E 121°41'1010.5
2014-Jul-29 19:33N 31°25' E 121°31'6 6.1
2014-Jul-29 18:33N 31°29' E 121°26'1111.4
2014-Jul-29 17:33N 31°37' E 121°16'1511.7
2014-Jul-29 16:14N 31°46' E 121°02'7 9.6
2014-Jul-29 15:33N 31°49' E 120°55'1212.4
2014-Jul-29 14:33N 32°00' E 120°48'1212.2
2014-Jul-29 13:33N 32°02' E 120°34'1010.1
2014-Jul-29 12:34N 32°00' E 120°23'1312.9
2014-Jul-29 11:33N 31°56' E 120°08'1312.7
2014-Jul-29 10:33N 32°04' E 119°56'17 0.5
2014-Jul-27 22:14N 32°15' E 119°41'7 9.9
2014-Jul-27 21:33N 32°19' E 119°48'1110.6
2014-Jul-27 20:33N 32°10' E 119°54'1111.1
2014-Jul-27 19:33N 32°00' E 119°59'9 9.0
2014-Jul-27 18:33N 31°56' E 120°08'9 9.3
2014-Jul-27 17:33N 31°58' E 120°19'10 9.6
2014-Jul-27 16:33N 32°04' E 120°28'8 8.4
2014-Jul-27 15:33N 32°00' E 120°37'9 8.6
2014-Jul-27 14:33N 32°01' E 120°47'9 8.9
2014-Jul-27 13:33N 31°54' E 120°53'9 8.8
2014-Jul-27 12:33N 31°47' E 120°60'9 9.4
2014-Jul-27 11:33N 31°42' E 121°09'10 9.4
2014-Jul-27 10:31N 31°35' E 121°18'1010.4
2014-Jul-27 09:33N 31°29' E 121°27'9 9.4
2014-Jul-27 08:33N 31°23' E 121°36'1110.8
2014-Jul-27 07:32N 31°16' E 121°46'3210.7
2014-Jul-27 04:32N 31°02' E 122°20'1312.8
2014-Jul-27 03:32N 31°00' E 122°34'6 1.8
2014-Jul-27 00:31N 30°59' E 122°40'  
2014-Jul-22 09:29N 30°57' E 122°48'1212.3
2014-Jul-22 08:29N 30°53' E 122°35'1211.9
2014-Jul-22 07:31N 30°50' E 122°22'1111.8
2014-Jul-22 06:34N 30°40' E 122°15'1211.7
2014-Jul-22 05:31N 30°32' E 122°05'44 1.0
2014-Jul-20 11:04N 30°35' E 121°14'0 0.0
2014-Jul-20 07:16N 30°35' E 121°14'6 5.6
2014-Jul-20 06:17N 30°34' E 121°20'1012.9
2014-Jul-20 05:31N 30°32' E 121°31'1312.6
2014-Jul-20 04:32N 30°30' E 121°46'1211.8
2014-Jul-20 03:31N 30°32' E 121°60'1010.3
2014-Jul-20 02:34N 30°33' E 122°11'1111.4
2014-Jul-20 01:33N 30°44' E 122°16'9 9.2
2014-Jul-20 00:33N 30°51' E 122°23'  
Track history (hours):
 
Tides and Currents Weather Stations Pressure Air Temp Water Temp Dewpoint Dewpoint Depression Visibility Wind Speed Wind Dir Waves Ship Positions

Gaschem Phoenix

Last reported at 2014-Jul-30 00:31 UTC. Time now 2014-Jul-30 21:17 UTC.
Position N 30°58' E 122°42'.

Length 100 m; draft 4.6 m.

Type: Ship. MMSI: 636090235.

Date/timePositionNaut miles runAvg speedWind from/ knotsBaromVisibWave heightAir tempDewpointWater temp
2014-Jul-30 00:31N 30°58' E 122°42'1414.3
2014-Jul-29 23:33N 31°00' E 122°26'1413.3
2014-Jul-29 22:29N 31°03' E 122°09'2015.4
2014-Jul-29 21:12N 31°12' E 121°49'1014.8
2014-Jul-29 20:32N 31°20' E 121°41'1010.5
2014-Jul-29 19:33N 31°25' E 121°31'6 6.1
2014-Jul-29 18:33N 31°29' E 121°26'1111.4
2014-Jul-29 17:33N 31°37' E 121°16'1511.7
2014-Jul-29 16:14N 31°46' E 121°02'7 9.6
2014-Jul-29 15:33N 31°49' E 120°55'1212.4
2014-Jul-29 14:33N 32°00' E 120°48'1212.2
2014-Jul-29 13:33N 32°02' E 120°34'1010.1
2014-Jul-29 12:34N 32°00' E 120°23'1312.9
2014-Jul-29 11:33N 31°56' E 120°08'1312.7
2014-Jul-29 10:33N 32°04' E 119°56'17 0.5
2014-Jul-27 22:14N 32°15' E 119°41'7 9.9
2014-Jul-27 21:33N 32°19' E 119°48'1110.6
2014-Jul-27 20:33N 32°10' E 119°54'1111.1
2014-Jul-27 19:33N 32°00' E 119°59'9 9.0
2014-Jul-27 18:33N 31°56' E 120°08'9 9.3
2014-Jul-27 17:33N 31°58' E 120°19'10 9.6
2014-Jul-27 16:33N 32°04' E 120°28'8 8.4
2014-Jul-27 15:33N 32°00' E 120°37'9 8.6
2014-Jul-27 14:33N 32°01' E 120°47'9 8.9
2014-Jul-27 13:33N 31°54' E 120°53'9 8.8
2014-Jul-27 12:33N 31°47' E 120°60'9 9.4
2014-Jul-27 11:33N 31°42' E 121°09'10 9.4
2014-Jul-27 10:31N 31°35' E 121°18'1010.4
2014-Jul-27 09:33N 31°29' E 121°27'9 9.4
2014-Jul-27 08:33N 31°23' E 121°36'1110.8
2014-Jul-27 07:32N 31°16' E 121°46'3210.7
2014-Jul-27 04:32N 31°02' E 122°20'1312.8
2014-Jul-27 03:32N 31°00' E 122°34'6 1.8
2014-Jul-27 00:31N 30°59' E 122°40'  
2014-Jul-22 09:29N 30°57' E 122°48'1212.3
2014-Jul-22 08:29N 30°53' E 122°35'1211.9
2014-Jul-22 07:31N 30°50' E 122°22'1111.8
2014-Jul-22 06:34N 30°40' E 122°15'1211.7
2014-Jul-22 05:31N 30°32' E 122°05'44 1.0
2014-Jul-20 11:04N 30°35' E 121°14'0 0.0
2014-Jul-20 07:16N 30°35' E 121°14'6 5.6
2014-Jul-20 06:17N 30°34' E 121°20'1012.9
2014-Jul-20 05:31N 30°32' E 121°31'1312.6
2014-Jul-20 04:32N 30°30' E 121°46'1211.8
2014-Jul-20 03:31N 30°32' E 121°60'1010.3
2014-Jul-20 02:34N 30°33' E 122°11'1111.4
2014-Jul-20 01:33N 30°44' E 122°16'9 9.2
2014-Jul-20 00:33N 30°51' E 122°23'  

Dump ship's entire track history